Time;durP1;ratioP1;P1;durP2;ratioP2;P2;SDS_P1;SDS_P2;PMS_P1;PMS_P2;Temp;Humidity;BMP_temperature;BMP_pressure;BME280_temperature;BME280_humidity;BME280_pressure;Samples;Min_cycle;Max_cycle;Signal;HPM_P1;HPM_P2
2021/12/29 07:36:55;;;;;;;;;4.67;4.00;;;;;11.08;100.00;100470.50;6238400;22;1999716;-89
2021/12/29 07:39:21;;;;;;;;;7.67;6.00;;;;;11.01;100.00;100440.44;6332054;22;45357;-95
2021/12/29 07:41:48;;;;;;;;;5.67;5.67;;;;;10.99;100.00;100426.38;6335217;22;45346;-93
2021/12/29 07:44:16;;;;;;;;;7.00;6.00;;;;;11.13;100.00;100437.41;6331508;22;46995;-94
2021/12/29 07:46:44;;;;;;;;;4.33;4.00;;;;;11.04;100.00;100414.31;6334718;22;45292;-93
2021/12/29 07:49:09;;;;;;;;;4.00;4.00;;;;;11.28;100.00;100468.63;6334407;22;45430;-93
2021/12/29 07:51:34;;;;;;;;;4.00;4.00;;;;;11.53;100.00;100553.66;6334544;22;45350;-94
2021/12/29 07:54:00;;;;;;;;;5.67;4.00;;;;;11.28;100.00;100463.38;6331781;22;56823;-93
2021/12/29 07:56:26;;;;;;;;;8.33;5.00;;;;;11.23;100.00;100422.91;6332723;22;45319;-93
2021/12/29 07:58:51;;;;;;;;;5.00;5.00;;;;;11.16;100.00;100401.63;6333699;22;45350;-94
2021/12/29 08:01:17;;;;;;;;;6.00;4.00;;;;;11.26;100.00;100407.25;6333558;22;45443;-93
2021/12/29 08:03:42;;;;;;;;;5.00;4.00;;;;;11.23;100.00;100407.13;6332500;22;47207;-94
2021/12/29 08:06:08;;;;;;;;;6.00;4.67;;;;;11.58;100.00;100490.72;6334899;22;45249;-93
2021/12/29 08:08:34;;;;;;;;;5.33;4.00;;;;;11.60;100.00;100508.34;6332134;22;45389;-94
2021/12/29 08:11:00;;;;;;;;;14.33;12.00;;;;;11.35;100.00;100425.97;6332442;22;45410;-91
2021/12/29 08:13:25;;;;;;;;;8.67;8.00;;;;;11.26;100.00;100392.34;6331497;22;47008;-94
2021/12/29 08:15:51;;;;;;;;;7.67;5.67;;;;;11.21;100.00;100378.16;6332811;22;45780;-94
2021/12/29 08:18:16;;;;;;;;;7.00;6.33;;;;;11.19;100.00;100358.81;6334005;22;45314;-93
2021/12/29 08:20:42;;;;;;;;;4.67;3.67;;;;;11.22;100.00;100358.94;6333302;22;45447;-95
2021/12/29 08:23:09;;;;;;;;;8.33;3.33;;;;;11.45;100.00;100413.16;6332255;22;48000;-95
2021/12/29 08:25:35;;;;;;;;;4.00;4.00;;;;;11.40;100.00;100463.84;6335054;22;45269;-95
2021/12/29 08:28:01;;;;;;;;;4.67;4.00;;;;;11.42;100.00;100420.94;6324074;22;45675;-94
2021/12/29 08:30:29;;;;;;;;;5.00;4.00;;;;;11.80;100.00;100502.94;6335017;22;45342;-95
2021/12/29 08:32:54;;;;;;;;;5.67;5.67;;;;;11.86;100.00;100507.53;6334087;22;45382;-96
2021/12/29 08:35:20;;;;;;;;;12.67;10.00;;;;;11.94;100.00;100526.22;6334041;22;45322;-95
2021/12/29 08:37:45;;;;;;;;;9.00;8.00;;;;;11.76;100.00;100442.28;6331449;22;45543;-94
2021/12/29 08:40:12;;;;;;;;;13.00;12.33;;;;;11.66;100.00;100402.53;6331408;22;45370;-95
2021/12/29 08:42:39;;;;;;;;;9.33;8.67;;;;;11.67;100.00;100533.16;6333312;22;45580;-94
2021/12/29 08:45:08;;;;;;;;;18.00;16.00;;;;;11.65;100.00;100531.31;6331661;22;45727;-95
2021/12/29 08:47:33;;;;;;;;;19.33;17.67;;;;;11.68;100.00;100527.03;6331632;22;45399;-95
2021/12/29 08:49:59;;;;;;;;;21.00;15.67;;;;;11.77;100.00;100530.88;6331497;22;45467;-95
2021/12/29 08:52:24;;;;;;;;;13.00;13.00;;;;;11.84;100.00;100531.16;6336854;22;46603;-95
2021/12/29 08:54:50;;;;;;;;;11.33;9.00;;;;;11.96;100.00;100524.53;6330741;22;45534;-95
2021/12/29 08:57:15;;;;;;;;;17.33;15.67;;;;;11.99;100.00;100531.63;6332845;22;45295;-94
2021/12/29 08:59:40;;;;;;;;;14.67;12.00;;;;;12.00;100.00;100531.72;6331674;22;45301;-95
2021/12/29 09:02:06;;;;;;;;;4.00;3.33;;;;;12.02;100.00;100532.66;6331767;22;54853;-94
2021/12/29 09:04:31;;;;;;;;;5.67;4.33;;;;;11.94;100.00;100529.75;6334268;22;45311;-95
2021/12/29 09:06:56;;;;;;;;;5.00;3.00;;;;;12.00;100.00;100523.81;6333539;22;45286;-95
2021/12/29 09:09:22;;;;;;;;;3.33;3.33;;;;;12.05;100.00;100524.88;6333598;22;45237;-95
2021/12/29 09:11:47;;;;;;;;;3.33;3.00;;;;;12.07;100.00;100525.81;6331903;22;47302;-94
2021/12/29 09:14:13;;;;;;;;;3.00;3.00;;;;;12.11;100.00;100516.28;6333213;22;45278;-95
2021/12/29 09:16:38;;;;;;;;;2.00;2.00;;;;;12.17;100.00;100516.53;6327668;22;45342;-95
2021/12/29 09:19:04;;;;;;;;;2.00;2.00;;;;;12.23;100.00;100514.97;6333208;22;45289;-95
2021/12/29 09:21:32;;;;;;;;;3.00;3.00;;;;;12.27;100.00;100512.50;6334752;22;45334;-95
2021/12/29 09:23:57;;;;;;;;;1.33;1.33;;;;;12.31;100.00;100512.59;6333088;22;45348;-96
2021/12/29 09:26:23;;;;;;;;;2.67;2.67;;;;;12.37;100.00;100513.69;6333587;22;45369;-95
2021/12/29 09:28:49;;;;;;;;;4.00;3.00;;;;;12.40;100.00;100526.06;6332634;22;45408;-93
2021/12/29 09:31:18;;;;;;;;;3.33;3.00;;;;;12.44;100.00;100525.34;6332388;22;46282;-92
2021/12/29 09:33:44;;;;;;;;;2.00;1.00;;;;;12.53;100.00;100535.28;6331732;22;45330;-89
2021/12/29 09:36:09;;;;;;;;;5.00;4.00;;;;;12.56;100.00;100524.88;6330904;22;45242;-90
2021/12/29 09:38:36;;;;;;;;;3.00;3.00;;;;;12.61;100.00;100512.75;6330525;22;45285;-91
2021/12/29 09:41:04;;;;;;;;;3.00;3.00;;;;;12.73;100.00;100521.91;6329448;22;46470;-89
2021/12/29 09:43:29;;;;;;;;;2.00;2.00;;;;;12.75;100.00;100528.13;6329955;22;45292;-90
2021/12/29 09:45:55;;;;;;;;;3.33;1.00;;;;;12.80;100.00;100513.34;6332643;22;45584;-91
2021/12/29 09:48:21;;;;;;;;;1.00;1.00;;;;;12.77;100.00;100507.09;6330696;22;45638;-89
2021/12/29 09:50:48;;;;;;;;;1.00;1.00;;;;;12.79;100.00;100508.94;6329987;22;48646;-90
2021/12/29 09:53:14;;;;;;;;;2.00;2.00;;;;;12.89;100.00;100519.75;6333382;22;45363;-91
2021/12/29 09:55:40;;;;;;;;;1.00;1.00;;;;;12.94;100.00;100512.88;6327581;22;45295;-89
2021/12/29 09:58:07;;;;;;;;;0.33;0.00;;;;;12.99;100.00;100513.06;6330876;22;45376;-90
2021/12/29 10:00:41;;;;;;;;;1.00;1.00;;;;;13.04;100.00;100511.47;6330699;22;47175;-90
2021/12/29 10:03:09;;;;;;;;;0.67;0.67;;;;;13.14;100.00;100512.66;6330065;22;45899;-89
2021/12/29 10:05:36;;;;;;;;;1.00;1.00;;;;;13.16;100.00;100506.56;6329770;22;45566;-90
2021/12/29 10:08:15;;;;;;;;;1.00;1.00;;;;;13.30;100.00;100516.63;6328190;22;45511;-90
2021/12/29 10:10:46;;;;;;;;;0.00;0.00;;;;;13.27;100.00;100511.28;6329171;22;47048;-91
2021/12/29 10:13:11;;;;;;;;;1.33;1.33;;;;;13.30;100.00;100504.34;6327043;22;45406;-89
2021/12/29 10:15:41;;;;;;;;;1.00;1.00;;;;;13.36;100.00;100497.47;6330407;22;45373;-91
2021/12/29 10:18:09;;;;;;;;;0.00;0.00;;;;;13.35;100.00;100527.31;6331758;22;45394;-91
2021/12/29 10:20:54;;;;;;;;;0.00;0.00;;;;;13.29;100.00;100521.03;6330356;22;47013;-90
2021/12/29 10:23:27;;;;;;;;;0.67;0.67;;;;;13.32;100.00;100537.78;6331700;22;45426;-91
2021/12/29 10:25:53;;;;;;;;;0.00;0.00;;;;;13.26;100.00;100526.19;6333029;22;45387;-91
2021/12/29 10:28:28;;;;;;;;;2.00;2.00;;;;;13.35;100.00;100537.88;6331598;22;45454;-91
2021/12/29 10:30:57;;;;;;;;;2.00;2.00;;;;;13.35;100.00;100533.47;6333218;22;45478;-92
2021/12/29 10:33:22;;;;;;;;;1.67;1.67;;;;;13.37;100.00;100528.25;6330039;22;45605;-91
2021/12/29 10:35:49;;;;;;;;;0.33;0.33;;;;;13.47;100.00;100532.06;6330303;22;45332;-92
2021/12/29 10:38:21;;;;;;;;;2.33;1.00;;;;;13.51;100.00;100531.28;6329525;22;45333;-93
2021/12/29 10:40:48;;;;;;;;;1.00;1.00;;;;;13.52;100.00;100515.53;6331475;22;45370;-91
2021/12/29 10:43:14;;;;;;;;;4.00;1.00;;;;;13.56;100.00;100537.59;6329854;22;45300;-93
2021/12/29 10:45:44;;;;;;;;;1.67;1.67;;;;;-149.69;100.00;58464.25;6330367;22;45325;-93
2021/12/29 10:48:17;;;;;;;;;1.33;1.33;;;;;-149.69;100.00;58464.25;6330209;22;45645;-93
2021/12/29 10:51:11;;;;;;;;;2.00;1.00;;;;;-149.69;100.00;58464.25;6332308;22;45469;-93
2021/12/29 10:53:38;;;;;;;;;0.33;0.33;;;;;-149.69;100.00;58464.25;6332067;22;45367;-92
2021/12/29 10:56:05;;;;;;;;;1.00;1.00;;;;;-149.69;100.00;58464.25;6330600;22;45440;-92
2021/12/29 10:58:34;;;;;;;;;3.00;2.00;;;;;-149.69;100.00;58464.25;6329100;22;45284;-90
2021/12/29 11:01:01;;;;;;;;;4.67;2.00;;;;;-149.69;100.00;58464.25;6329365;22;47150;-90
2021/12/29 11:03:28;;;;;;;;;0.00;0.00;;;;;-149.69;100.00;58464.25;6328412;22;45788;-88
2021/12/29 11:06:00;;;;;;;;;0.33;0.33;;;;;-149.69;100.00;58464.25;6330083;22;45419;-90
2021/12/29 11:08:46;;;;;;;;;1.00;1.00;;;;;-149.69;100.00;58464.25;6329304;22;45620;-90
2021/12/29 11:11:12;;;;;;;;;0.00;0.00;;;;;-149.69;100.00;58464.25;6331260;22;45681;-90
2021/12/29 11:13:38;;;;;;;;;0.33;0.33;;;;;-149.69;100.00;58464.25;6327844;22;45901;-89
2021/12/29 11:16:05;;;;;;;;;1.33;0.00;;;;;-149.69;100.00;58464.25;6328688;22;45420;-90
2021/12/29 11:18:49;;;;;;;;;2.00;1.00;;;;;-149.69;100.00;58464.25;6328582;22;45383;-91
2021/12/29 11:21:26;;;;;;;;;0.00;0.00;;;;;-149.69;100.00;58464.25;6325573;22;48200;-91
2021/12/29 11:23:52;;;;;;;;;2.00;1.00;;;;;-149.69;100.00;58464.25;6327513;22;45784;-91
2021/12/29 11:26:27;;;;;;;;;2.67;1.00;;;;;-149.69;100.00;58464.25;6329025;22;45361;-89
2021/12/29 11:28:53;;;;;;;;;0.00;0.00;;;;;-149.69;100.00;58464.25;6328856;22;45523;-88
2021/12/29 11:31:18;;;;;;;;;0.00;0.00;;;;;-149.69;100.00;58464.25;6329282;22;47094;-89
2021/12/29 11:33:43;;;;;;;;;0.00;0.00;;;;;-149.69;100.00;58464.25;6329308;22;45589;-88
2021/12/29 11:36:20;;;;;;;;;0.00;0.00;;;;;-149.69;100.00;58464.25;6329309;22;45305;-88
2021/12/29 11:38:46;;;;;;;;;1.00;1.00;;;;;-149.69;100.00;58464.25;6332281;22;45277;-87
2021/12/29 11:41:17;;;;;;;;;0.67;0.67;;;;;-149.69;100.00;58464.25;6330854;22;47254;-86
2021/12/29 11:43:44;;;;;;;;;1.33;0.33;;;;;-149.69;100.00;58464.25;6330473;22;45807;-88
2021/12/29 11:46:10;;;;;;;;;1.00;1.00;;;;;-149.69;100.00;58464.25;6331295;22;45257;-86
2021/12/29 11:48:35;;;;;;;;;1.00;1.00;;;;;-149.69;100.00;58464.25;6332577;22;45264;-87
2021/12/29 11:51:03;;;;;;;;;2.00;2.00;;;;;-149.69;100.00;58464.25;6330324;22;52727;-88
2021/12/29 11:53:57;;;;;;;;;1.00;1.00;;;;;-149.69;100.00;58464.25;6331881;22;45340;-85
2021/12/29 11:56:23;;;;;;;;;1.00;1.00;;;;;-149.69;100.00;58464.25;6322861;22;45356;-86
2021/12/29 11:58:50;;;;;;;;;0.00;0.00;;;;;-149.69;100.00;58464.25;6331862;22;45863;-88
2021/12/29 12:01:15;;;;;;;;;3.00;1.00;;;;;-149.69;100.00;58464.25;6332052;22;46271;-87
2021/12/29 12:03:51;;;;;;;;;0.50;0.50;;;;;-149.69;100.00;58464.25;6332596;22;45319;-87
2021/12/29 12:06:22;;;;;;;;;0.00;0.00;;;;;-149.69;100.00;58464.25;6332597;22;45315;-87
2021/12/29 12:08:48;;;;;;;;;2.33;2.33;;;;;-149.69;100.00;58464.25;6331680;22;45691;-87
2021/12/29 12:11:25;;;;;;;;;1.00;1.00;;;;;-149.69;100.00;58464.25;6329189;22;46409;-86
2021/12/29 12:13:51;;;;;;;;;0.33;0.33;;;;;-149.69;100.00;58464.25;6331709;22;45352;-86
2021/12/29 12:16:16;;;;;;;;;0.00;0.00;;;;;-149.69;100.00;58464.25;6332637;22;45272;-86
2021/12/29 12:18:50;;;;;;;;;0.00;0.00;;;;;-149.69;100.00;58464.25;6329492;22;57123;-88
2021/12/29 12:21:30;;;;;;;;;0.00;0.00;;;;;-149.69;100.00;58464.25;6329980;22;47485;-87
2021/12/29 12:24:23;;;;;;;;;0.00;0.00;;;;;-149.69;100.00;58464.25;6329459;22;45854;-90
2021/12/29 12:27:02;;;;;;;;;0.00;0.00;;;;;-149.69;100.00;58464.25;6331469;22;45300;-88
2021/12/29 12:29:37;;;;;;;;;0.67;0.67;;;;;-149.69;100.00;58464.25;6334699;22;45327;-90
2021/12/29 12:32:02;;;;;;;;;1.00;1.00;;;;;-149.69;100.00;58464.25;6326361;22;48061;-89
2021/12/29 12:34:28;;;;;;;;;1.00;1.00;;;;;-149.69;100.00;58464.25;6328475;22;45900;-89
2021/12/29 12:36:53;;;;;;;;;0.50;0.50;;;;;-149.69;100.00;58464.25;6330226;22;45404;-89
2021/12/29 12:39:21;;;;;;;;;0.00;0.00;;;;;-149.69;100.00;58464.25;6329582;22;45278;-90
2021/12/29 12:41:49;;;;;;;;;1.00;1.00;;;;;-149.69;100.00;58464.25;6327846;22;46489;-89
2021/12/29 12:44:17;;;;;;;;;2.00;1.00;;;;;-149.69;100.00;58464.25;6330011;22;45827;-88
2021/12/29 12:46:48;;;;;;;;;1.33;1.33;;;;;-149.69;100.00;58464.25;6330304;22;45382;-92
2021/12/29 12:49:18;;;;;;;;;1.00;1.00;;;;;-149.69;100.00;58464.25;6329178;22;45420;-90
2021/12/29 12:51:58;;;;;;;;;2.00;2.00;;;;;-149.69;100.00;58464.25;6329987;22;48019;-90
2021/12/29 12:54:27;;;;;;;;;0.00;0.00;;;;;-149.69;100.00;58464.25;6328876;22;45362;-90
2021/12/29 12:56:54;;;;;;;;;0.67;0.67;;;;;-149.69;100.00;58464.25;6329407;22;45758;-86
2021/12/29 12:59:19;;;;;;;;;2.00;1.00;;;;;-149.69;100.00;58464.25;6329995;22;45423;-88
2021/12/29 13:01:47;;;;;;;;;1.00;1.00;;;;;-149.69;100.00;58464.25;6330646;22;45984;-88
2021/12/29 13:04:15;;;;;;;;;1.00;1.00;;;;;-149.69;100.00;58464.25;6331736;22;45319;-90
2021/12/29 13:06:43;;;;;;;;;0.67;0.67;;;;;-149.69;100.00;58464.25;6330386;22;45538;-89
2021/12/29 13:09:08;;;;;;;;;0.00;0.00;;;;;-149.69;100.00;58464.25;6329040;22;45245;-87
2021/12/29 13:11:36;;;;;;;;;1.33;1.33;;;;;-149.69;100.00;58464.25;6330316;22;47946;-88
2021/12/29 13:14:04;;;;;;;;;1.00;1.00;;;;;-149.69;100.00;58464.25;6331806;22;45351;-88
2021/12/29 13:16:31;;;;;;;;;0.33;0.33;;;;;-149.69;100.00;58464.25;6329429;22;45252;-89
2021/12/29 13:18:58;;;;;;;;;0.00;0.00;;;;;-149.69;100.00;58464.25;6329338;22;45478;-88
2021/12/29 13:21:30;;;;;;;;;0.00;0.00;;;;;-149.69;100.00;58464.25;6326240;22;45404;-88
2021/12/29 13:23:59;;;;;;;;;0.00;0.00;;;;;-149.69;100.00;58464.25;6330149;22;45702;-89
2021/12/29 13:26:30;;;;;;;;;0.00;0.00;;;;;-149.69;100.00;58464.25;6327539;22;45338;-89
2021/12/29 13:28:56;;;;;;;;;1.00;1.00;;;;;-149.69;100.00;58464.25;6328369;22;45282;-90
2021/12/29 13:31:22;;;;;;;;;1.00;1.00;;;;;-149.69;100.00;58464.25;6327482;22;47321;-90
2021/12/29 13:33:50;;;;;;;;;1.00;1.00;;;;;-149.69;100.00;58464.25;6327901;22;45302;-90
2021/12/29 13:36:17;;;;;;;;;1.00;1.00;;;;;-149.69;100.00;58464.25;6330418;22;45391;-90
2021/12/29 13:38:44;;;;;;;;;1.00;1.00;;;;;-149.69;100.00;58464.25;6334871;22;45278;-90
2021/12/29 13:41:21;;;;;;;;;0.00;0.00;;;;;-149.69;100.00;58464.25;6339211;22;47130;-89
2021/12/29 13:43:57;;;;;;;;;0.00;0.00;;;;;-149.69;100.00;58464.25;6328167;22;45503;-90
2021/12/29 13:46:29;;;;;;;;;0.00;0.00;;;;;-149.69;100.00;58464.25;6334675;22;45656;-89
2021/12/29 13:48:57;;;;;;;;;0.00;0.00;;;;;-149.69;100.00;58464.25;6336827;22;45550;-90
2021/12/29 13:51:26;;;;;;;;;2.00;1.00;;;;;-149.69;100.00;58464.25;6331180;22;46831;-90
2021/12/29 13:53:52;;;;;;;;;0.67;0.67;;;;;-149.69;100.00;58464.25;6328485;22;45281;-90
2021/12/29 13:56:42;;;;;;;;;0.67;0.67;;;;;-149.69;100.00;58464.25;6329110;22;45359;-90
2021/12/29 13:59:12;;;;;;;;;0.33;0.33;;;;;-149.69;100.00;58464.25;6324917;22;45454;-90
2021/12/29 14:01:41;;;;;;;;;2.00;1.00;;;;;-149.69;100.00;58464.25;6327566;22;47992;-91
2021/12/29 14:04:09;;;;;;;;;0.00;0.00;;;;;-149.69;100.00;58464.25;6330230;22;45437;-90
2021/12/29 14:06:34;;;;;;;;;1.00;1.00;;;;;-149.69;100.00;58464.25;6329258;22;45387;-90
2021/12/29 14:09:00;;;;;;;;;0.00;0.00;;;;;-149.69;100.00;58464.25;6329493;22;45347;-91
2021/12/29 14:11:27;;;;;;;;;0.00;0.00;;;;;-149.69;100.00;58464.25;6331715;22;45330;-90
2021/12/29 14:14:14;;;;;;;;;0.33;0.33;;;;;-149.69;100.00;58464.25;6332032;22;45434;-90
2021/12/29 14:16:48;;;;;;;;;0.00;0.00;;;;;-149.69;100.00;58464.25;6325923;22;45343;-90
2021/12/29 14:19:15;;;;;;;;;1.00;1.00;;;;;-149.69;100.00;58464.25;6333182;22;45430;-91
2021/12/29 14:21:42;;;;;;;;;0.67;0.67;;;;;-149.69;100.00;58464.25;6330003;22;45807;-91
2021/12/29 14:24:10;;;;;;;;;0.00;0.00;;;;;-149.69;100.00;58464.25;6327185;22;45643;-90
2021/12/29 14:26:41;;;;;;;;;0.00;0.00;;;;;-149.69;100.00;58464.25;6334499;22;45392;-92
2021/12/29 14:29:08;;;;;;;;;0.33;0.33;;;;;-149.69;100.00;58464.25;6327999;22;45518;-91
2021/12/29 14:31:39;;;;;;;;;0.67;0.67;;;;;-149.69;100.00;58464.25;6324085;22;47293;-91
2021/12/29 14:34:07;;;;;;;;;1.00;1.00;;;;;-149.69;100.00;58464.25;6330841;22;45239;-91
2021/12/29 14:36:44;;;;;;;;;2.00;1.00;;;;;-149.69;100.00;58464.25;6329527;22;45320;-91
2021/12/29 14:39:17;;;;;;;;;1.00;1.00;;;;;-149.69;100.00;58464.25;6329137;22;45402;-91
2021/12/29 14:41:42;;;;;;;;;1.33;1.00;;;;;-149.69;100.00;58464.25;6325550;22;48353;-92
2021/12/29 14:44:13;;;;;;;;;2.33;1.00;;;;;-149.69;100.00;58464.25;6325765;22;45355;-91
2021/12/29 14:46:52;;;;;;;;;1.67;1.67;;;;;-149.69;100.00;58464.25;6328136;22;45452;-91
2021/12/29 14:49:42;;;;;;;;;1.00;1.00;;;;;-149.69;100.00;58464.25;6330771;22;45571;-90
2021/12/29 14:52:17;;;;;;;;;0.67;0.33;;;;;-149.69;100.00;58464.25;6330718;22;45365;-91
2021/12/29 14:54:50;;;;;;;;;0.00;0.00;;;;;-149.69;100.00;58464.25;6330532;22;45308;-90
2021/12/29 14:57:19;;;;;;;;;0.00;0.00;;;;;-149.69;100.00;58464.25;6329129;22;45397;-89
2021/12/29 14:59:45;;;;;;;;;3.00;1.00;;;;;-149.69;100.00;58464.25;6329048;22;45321;-94
2021/12/29 15:02:19;;;;;;;;;2.00;2.00;;;;;-149.69;100.00;58464.25;6325162;22;48132;-91
2021/12/29 15:05:01;;;;;;;;;2.00;1.00;;;;;-149.69;100.00;58464.25;6331083;22;45358;-89
2021/12/29 15:07:28;;;;;;;;;1.00;1.00;;;;;-149.69;100.00;58464.25;6331876;22;45358;-90
2021/12/29 15:10:00;;;;;;;;;0.00;0.00;;;;;-149.69;100.00;58464.25;6328372;22;45333;-90
2021/12/29 15:12:27;;;;;;;;;0.67;0.67;;;;;-149.69;100.00;58464.25;6331739;22;45657;-91
2021/12/29 15:14:53;;;;;;;;;1.67;0.67;;;;;-149.69;100.00;58464.25;6332999;22;45296;-90
2021/12/29 15:17:18;;;;;;;;;0.00;0.00;;;;;-149.69;100.00;58464.25;6330629;22;45469;-91
2021/12/29 15:19:44;;;;;;;;;0.00;0.00;;;;;-149.69;100.00;58464.25;6331227;22;45452;-90
2021/12/29 15:22:10;;;;;;;;;2.00;0.67;;;;;-149.69;100.00;58464.25;6331717;22;46197;-90
2021/12/29 15:24:35;;;;;;;;;1.00;1.00;;;;;-149.69;100.00;58464.25;6330629;22;45383;-91
2021/12/29 15:27:01;;;;;;;;;2.00;1.00;;;;;-149.69;100.00;58464.25;6330072;22;45270;-91
2021/12/29 15:29:27;;;;;;;;;0.00;0.00;;;;;-149.69;100.00;58464.25;6329721;22;45351;-91
2021/12/29 15:31:53;;;;;;;;;3.00;1.00;;;;;-149.69;100.00;58464.25;6330073;22;46063;-93
2021/12/29 15:34:18;;;;;;;;;2.00;2.00;;;;;-149.69;100.00;58464.25;6332309;22;45813;-93
2021/12/29 15:36:45;;;;;;;;;0.67;0.67;;;;;-149.69;100.00;58464.25;6331511;22;45365;-90
2021/12/29 15:39:11;;;;;;;;;1.00;0.33;;;;;-149.69;100.00;58464.25;6326046;22;45404;-93
2021/12/29 15:41:37;;;;;;;;;1.00;1.00;;;;;-149.69;100.00;58464.25;6330422;22;47979;-93
2021/12/29 15:44:03;;;;;;;;;1.33;0.00;;;;;-149.69;100.00;58464.25;6327060;22;45940;-94
2021/12/29 15:46:28;;;;;;;;;3.67;2.00;;;;;-149.69;100.00;58464.25;6330343;22;45288;-91
2021/12/29 15:48:54;;;;;;;;;0.00;0.00;;;;;-149.69;100.00;58464.25;6331919;22;45347;-93
2021/12/29 15:51:20;;;;;;;;;1.33;1.33;;;;;-149.69;100.00;58464.25;6329527;22;47457;-93
2021/12/29 15:53:46;;;;;;;;;1.00;1.00;;;;;-149.69;100.00;58464.25;6331690;22;45756;-94
2021/12/29 15:56:13;;;;;;;;;2.00;1.00;;;;;-149.69;100.00;58464.25;6331708;22;45328;-95
2021/12/29 15:58:39;;;;;;;;;1.00;1.00;;;;;-149.69;100.00;58464.25;6331743;22;45431;-92
2021/12/29 16:01:04;;;;;;;;;1.00;1.00;;;;;-149.69;100.00;58464.25;6332229;22;47137;-93
2021/12/29 16:03:30;;;;;;;;;1.00;1.00;;;;;-149.69;100.00;58464.25;6331798;22;45411;-95
2021/12/29 16:05:55;;;;;;;;;0.00;0.00;;;;;-149.69;100.00;58464.25;6332670;22;45321;-92
2021/12/29 16:08:21;;;;;;;;;1.33;0.67;;;;;-149.69;100.00;58464.25;6333727;22;45267;-93
2021/12/29 16:10:46;;;;;;;;;2.67;2.00;;;;;-149.69;100.00;58464.25;6336289;22;46298;-93
2021/12/29 16:13:12;;;;;;;;;2.00;1.00;;;;;-149.69;100.00;58464.25;6333477;22;45257;-93
2021/12/29 16:15:39;;;;;;;;;1.00;1.00;;;;;-149.69;100.00;58464.25;6331526;22;45413;-94
2021/12/29 16:18:06;;;;;;;;;1.00;1.00;;;;;-149.69;100.00;58464.25;6334983;22;45238;-93
2021/12/29 16:20:31;;;;;;;;;1.67;1.67;;;;;-149.69;100.00;58464.25;6331480;22;46937;-93
2021/12/29 16:22:57;;;;;;;;;1.00;1.00;;;;;-149.69;100.00;58464.25;6330248;22;45997;-94
2021/12/29 16:25:24;;;;;;;;;1.00;1.00;;;;;-149.69;100.00;58464.25;6329681;22;45340;-94
2021/12/29 16:27:49;;;;;;;;;1.33;1.33;;;;;-149.69;100.00;58464.25;6330077;22;45367;-94
2021/12/29 16:30:17;;;;;;;;;2.00;1.00;;;;;-149.69;100.00;58464.25;6329324;22;47317;-93
2021/12/29 16:32:44;;;;;;;;;1.00;1.00;;;;;-149.69;100.00;58464.25;6330090;22;45319;-93
2021/12/29 16:35:11;;;;;;;;;1.00;1.00;;;;;-149.69;100.00;58464.25;6329088;22;45390;-92
2021/12/29 16:37:37;;;;;;;;;0.00;0.00;;;;;-149.69;100.00;58464.25;6332287;22;45276;-93
2021/12/29 16:40:06;;;;;;;;;1.00;1.00;;;;;-149.69;100.00;58464.25;6329156;22;47418;-93
2021/12/29 16:42:31;;;;;;;;;0.00;0.00;;;;;-149.69;100.00;58464.25;6328796;22;45914;-94
2021/12/29 16:44:57;;;;;;;;;1.67;1.67;;;;;-149.69;100.00;58464.25;6331527;22;45311;-92
2021/12/29 16:47:23;;;;;;;;;0.67;0.00;;;;;-149.69;100.00;58464.25;6329177;22;45343;-93
2021/12/29 16:49:52;;;;;;;;;0.00;0.00;;;;;-149.69;100.00;58464.25;6330047;22;48471;-93
2021/12/29 16:52:18;;;;;;;;;1.00;1.00;;;;;-149.69;100.00;58464.25;6333403;22;45354;-93
2021/12/29 16:54:44;;;;;;;;;0.00;0.00;;;;;-149.69;100.00;58464.25;6330088;22;45729;-94
2021/12/29 16:57:10;;;;;;;;;0.00;0.00;;;;;-149.69;100.00;58464.25;6330603;22;45349;-92
2021/12/29 16:59:35;;;;;;;;;1.33;1.33;;;;;-149.69;100.00;58464.25;6331692;22;47468;-93
2021/12/29 17:02:01;;;;;;;;;0.00;0.00;;;;;-149.69;100.00;58464.25;6330762;22;45284;-93
2021/12/29 17:04:26;;;;;;;;;2.00;2.00;;;;;-149.69;100.00;58464.25;6331633;22;45404;-93
2021/12/29 17:06:52;;;;;;;;;1.00;1.00;;;;;-149.69;100.00;58464.25;6332158;22;45231;-94
2021/12/29 17:09:17;;;;;;;;;3.00;2.00;;;;;-149.69;100.00;58464.25;6330973;22;45546;-93
2021/12/29 17:11:43;;;;;;;;;1.00;1.00;;;;;-149.69;100.00;58464.25;6329073;22;45268;-93
2021/12/29 17:14:11;;;;;;;;;2.00;2.00;;;;;-149.69;100.00;58464.25;6332218;22;45368;-92
2021/12/29 17:16:42;;;;;;;;;1.00;1.00;;;;;-149.69;100.00;58464.25;6331727;22;45364;-92
2021/12/29 17:19:08;;;;;;;;;1.33;1.00;;;;;-149.69;100.00;58464.25;6331543;22;47252;-92
2021/12/29 17:21:34;;;;;;;;;1.00;1.00;;;;;-149.69;100.00;58464.25;6331737;22;45350;-93
2021/12/29 17:24:00;;;;;;;;;1.00;1.00;;;;;-149.69;100.00;58464.25;6331096;22;45616;-93
2021/12/29 17:26:25;;;;;;;;;2.00;2.00;;;;;-149.69;100.00;58464.25;6331939;22;45547;-94
2021/12/29 17:28:51;;;;;;;;;3.67;3.33;;;;;-149.69;100.00;58464.25;6328415;22;46994;-94
2021/12/29 17:31:16;;;;;;;;;4.00;4.00;;;;;-149.69;100.00;58464.25;6334226;22;48711;-93
2021/12/29 17:33:42;;;;;;;;;11.67;11.00;;;;;-149.69;100.00;58464.25;6330755;22;45552;-95
2021/12/29 17:36:08;;;;;;;;;13.33;9.00;;;;;-149.69;100.00;58464.25;6334019;22;45643;-95
2021/12/29 17:38:34;;;;;;;;;26.00;18.00;;;;;-149.69;100.00;58464.25;6331192;22;47864;-93
2021/12/29 17:40:59;;;;;;;;;45.00;35.00;;;;;-149.69;100.00;58464.25;6331410;22;45526;-94
2021/12/29 17:43:25;;;;;;;;;31.33;28.00;;;;;-149.69;100.00;58464.25;6332886;22;45613;-93
2021/12/29 17:45:51;;;;;;;;;42.50;35.25;;;;;-149.69;100.00;58464.25;6331471;22;45408;-95
2021/12/29 17:48:16;;;;;;;;;28.33;28.33;;;;;-149.69;100.00;58464.25;6331388;22;47764;-94
2021/12/29 17:50:44;;;;;;;;;35.00;28.00;;;;;-149.69;100.00;58464.25;6332147;22;45744;-94
2021/12/29 17:53:12;;;;;;;;;37.00;31.67;;;;;-149.69;100.00;58464.25;6331608;22;45259;-93
2021/12/29 17:55:38;;;;;;;;;35.67;31.00;;;;;-149.69;100.00;58464.25;6333306;22;45691;-94
2021/12/29 17:58:07;;;;;;;;;36.33;30.33;;;;;-149.69;100.00;58464.25;6333225;22;48220;-93
2021/12/29 18:00:33;;;;;;;;;57.50;45.50;;;;;-149.69;100.00;58464.25;6334217;22;45295;-94
2021/12/29 18:02:59;;;;;;;;;20.00;19.00;;;;;-149.69;100.00;58464.25;6331961;22;45279;-95
2021/12/29 18:05:24;;;;;;;;;34.33;31.00;;;;;-149.69;100.00;58464.25;6332004;22;45172;-94
2021/12/29 18:07:50;;;;;;;;;28.00;25.00;;;;;-149.69;100.00;58464.25;6331016;22;46801;-93
2021/12/29 18:10:17;;;;;;;;;30.00;23.67;;;;;-149.69;100.00;58464.25;6329334;22;45910;-94
2021/12/29 18:12:44;;;;;;;;;40.25;33.00;;;;;-149.69;100.00;58464.25;6332934;22;45226;-96
2021/12/29 18:15:11;;;;;;;;;54.25;44.25;;;;;-149.69;100.00;58464.25;6332458;22;45845;-94
2021/12/29 18:17:37;;;;;;;;;14.67;13.00;;;;;-149.69;100.00;58464.25;6332537;22;48064;-95
2021/12/29 18:20:06;;;;;;;;;13.67;10.33;;;;;-149.69;100.00;58464.25;6335073;22;45292;-96
2021/12/29 18:22:31;;;;;;;;;15.00;12.33;;;;;-149.69;100.00;58464.25;6307721;22;45273;-96
2021/12/29 18:24:57;;;;;;;;;33.33;29.67;;;;;-149.69;100.00;58464.25;6332740;22;45292;-96
2021/12/29 18:27:24;;;;;;;;;26.67;23.67;;;;;-149.69;100.00;58464.25;6333279;22;48452;-94
2021/12/29 18:29:50;;;;;;;;;16.33;16.00;;;;;-149.69;100.00;58464.25;6334416;22;45224;-95
2021/12/29 18:32:15;;;;;;;;;20.33;17.00;;;;;-149.69;100.00;58464.25;6333707;22;45348;-95
2021/12/29 18:34:40;;;;;;;;;6.67;6.67;;;;;-149.69;100.00;58464.25;6332515;22;45377;-94
2021/12/29 18:37:06;;;;;;;;;20.67;14.00;;;;;-149.69;100.00;58464.25;6331223;22;47280;-95
2021/12/29 18:39:32;;;;;;;;;10.33;10.33;;;;;-149.69;100.00;58464.25;6335941;22;45381;-94
2021/12/29 18:41:57;;;;;;;;;10.33;8.00;;;;;-149.69;100.00;58464.25;6332274;22;45248;-95
2021/12/29 18:44:26;;;;;;;;;18.33;15.33;;;;;-149.69;100.00;58464.25;6332416;22;45160;-94
2021/12/29 18:46:53;;;;;;;;;9.00;9.00;;;;;-149.69;100.00;58464.25;6333126;22;47408;-95
2021/12/29 18:49:19;;;;;;;;;5.33;5.00;;;;;-149.69;100.00;58464.25;6333240;22;45317;-94